createdAt,value
2023-02-06T06:56:30.293Z,44.56
2023-02-06T06:59:15.870Z,44.56
2023-02-06T07:02:03.358Z,44.57
2023-02-06T07:04:49.062Z,42.49
2023-02-06T07:07:34.764Z,41.95
2023-02-06T07:10:24.923Z,40.30
2023-02-06T07:13:10.377Z,37.93
2023-02-06T07:15:55.773Z,37.63
2023-02-06T07:18:43.101Z,37.19
2023-02-06T07:21:28.599Z,37.39
2023-02-06T07:24:16.630Z,36.95
2023-02-06T07:27:03.219Z,35.76
2023-02-06T07:29:53.184Z,35.36
2023-02-06T07:32:39.662Z,33.44
2023-02-06T07:35:24.882Z,31.98
2023-02-06T07:38:10.105Z,31.63
2023-02-06T07:40:55.486Z,30.58
2023-02-06T07:43:40.850Z,29.99
2023-02-06T07:46:26.627Z,28.98
2023-02-06T07:49:15.004Z,27.24
2023-02-06T07:52:00.140Z,26.08
2023-02-06T07:54:45.544Z,24.21
2023-02-06T07:57:32.178Z,23.76
2023-02-06T08:00:17.727Z,22.53
2023-02-06T08:03:04.774Z,22.58
2023-02-06T08:05:50.490Z,23.19
2023-02-06T08:08:35.780Z,23.09
2023-02-06T08:11:21.934Z,23.06
2023-02-06T08:14:08.441Z,21.95
2023-02-06T08:16:56.554Z,23.35
2023-02-06T08:19:42.085Z,22.07
2023-02-06T08:22:29.916Z,22.13
2023-02-06T08:25:16.289Z,22.57
2023-02-06T08:28:02.348Z,23.96
2023-02-06T08:30:47.730Z,25.97
2023-02-06T08:33:32.972Z,28.81
2023-02-06T08:36:29.930Z,30.74
2023-02-06T08:39:19.238Z,27.14
2023-02-06T08:42:08.309Z,25.75
2023-02-06T08:44:53.961Z,25.76
2023-02-06T08:47:39.670Z,25.56
2023-02-06T08:50:25.800Z,24.33
2023-02-06T08:53:12.608Z,23.58
2023-02-06T08:56:03.599Z,22.46
2023-02-06T08:58:49.100Z,22.56
2023-02-06T09:01:37.257Z,21.08
2023-02-06T09:04:22.563Z,20.20
2023-02-06T09:07:08.065Z,20.87
2023-02-06T09:09:54.490Z,19.62
2023-02-06T09:12:42.079Z,20.07
2023-02-06T09:15:27.139Z,18.88
2023-02-06T09:18:14.244Z,17.76
2023-02-06T09:21:05.458Z,17.45
2023-02-06T09:23:53.075Z,17.49
2023-02-06T09:26:53.398Z,16.55
2023-02-06T09:29:42.948Z,16.69
2023-02-06T09:32:31.357Z,15.87
2023-02-06T09:35:17.797Z,17.19
2023-02-06T09:38:03.413Z,15.93
2023-02-06T09:40:48.863Z,16.55
2023-02-06T09:43:34.880Z,16.87
2023-02-06T09:46:32.355Z,16.26
2023-02-06T09:49:25.271Z,15.90
2023-02-06T09:52:10.579Z,15.07
2023-02-06T09:55:14.792Z,14.98
2023-02-06T09:58:16.827Z,16.54
2023-02-06T10:01:12.428Z,18.00
2023-02-06T10:04:13.200Z,16.12
2023-02-06T10:07:01.910Z,16.54
2023-02-06T10:09:54.779Z,16.79
2023-02-06T10:12:48.132Z,16.76
2023-02-06T10:15:49.361Z,16.05
2023-02-06T10:18:40.551Z,16.42
2023-02-06T10:21:31.616Z,14.99
2023-02-06T10:24:30.450Z,14.18
2023-02-06T10:27:16.120Z,13.52
2023-02-06T10:30:01.568Z,13.27
2023-02-06T10:32:59.645Z,13.04
2023-02-06T10:36:00.090Z,12.88
2023-02-06T10:39:14.143Z,12.21
2023-02-06T10:42:25.479Z,13.51
2023-02-06T10:45:38.618Z,13.50
2023-02-06T10:48:31.820Z,13.58
2023-02-06T10:51:24.352Z,13.48
2023-02-06T10:54:36.350Z,14.06
2023-02-06T10:57:25.168Z,14.25
2023-02-06T11:00:24.210Z,14.25
2023-02-06T11:03:14.884Z,13.98
2023-02-06T11:06:01.786Z,13.69
2023-02-06T11:08:47.438Z,13.09
2023-02-06T11:11:56.670Z,12.65
2023-02-06T11:14:42.020Z,13.84
2023-02-06T11:17:28.521Z,14.72
2023-02-06T11:20:28.310Z,15.51
2023-02-06T11:23:22.211Z,13.98
2023-02-06T11:26:07.421Z,13.56
2023-02-06T11:28:58.420Z,13.73
2023-02-06T11:31:51.533Z,14.98
2023-02-06T11:34:52.662Z,13.98
2023-02-06T11:37:41.609Z,13.68
2023-02-06T11:40:28.195Z,14.02
2023-02-06T11:43:19.050Z,14.49
2023-02-06T11:46:15.385Z,15.18
2023-02-06T11:49:03.679Z,15.97
2023-02-06T11:51:52.691Z,19.84
2023-02-06T11:54:38.233Z,21.27
2023-02-06T11:57:26.895Z,24.00
2023-02-06T12:00:23.491Z,25.52
2023-02-06T12:03:35.619Z,27.83
2023-02-06T12:06:34.792Z,26.29
2023-02-06T12:09:20.644Z,20.45
2023-02-06T12:12:18.087Z,18.47
2023-02-06T12:15:32.989Z,20.65
2023-02-06T12:18:19.217Z,24.25
2023-02-06T12:21:13.682Z,24.28
2023-02-06T12:24:02.347Z,26.08
2023-02-06T12:26:48.523Z,27.32
2023-02-06T12:29:40.750Z,27.86
2023-02-06T12:32:37.245Z,27.91
2023-02-06T12:35:33.948Z,29.65
2023-02-06T12:38:43.671Z,30.11
2023-02-06T12:41:35.208Z,25.18
2023-02-06T12:44:48.293Z,23.31
2023-02-06T12:47:49.117Z,20.03
2023-02-06T12:50:48.558Z,19.26
2023-02-06T12:53:45.672Z,18.65
2023-02-06T13:13:46.267Z,27.59
2023-02-06T13:16:51.056Z,27.59
2023-02-06T13:19:39.218Z,25.48
2023-02-06T13:22:49.437Z,23.92
